sensor_id;sensor_type;location;lat;lon;timestamp;temperature;humidity
15922;DHT22;8060;50.948;3.146;2023-01-16T08:07:47;6.20;99.90
15922;DHT22;8060;50.948;3.146;2023-01-16T08:20:10;6.40;99.90
15922;DHT22;8060;50.948;3.146;2023-01-16T08:22:43;6.40;99.90
15922;DHT22;8060;50.948;3.146;2023-01-16T08:25:16;6.30;99.90
15922;DHT22;8060;50.948;3.146;2023-01-16T08:27:44;6.30;99.90
15922;DHT22;8060;50.948;3.146;2023-01-16T08:30:14;6.40;99.90
15922;DHT22;8060;50.948;3.146;2023-01-16T08:32:45;6.40;99.90
15922;DHT22;8060;50.948;3.146;2023-01-16T08:35:17;6.40;99.90
15922;DHT22;8060;50.948;3.146;2023-01-16T08:37:48;6.50;99.90
15922;DHT22;8060;50.948;3.146;2023-01-16T08:40:17;6.50;99.90
15922;DHT22;8060;50.948;3.146;2023-01-16T08:42:49;6.50;99.90
15922;DHT22;8060;50.948;3.146;2023-01-16T08:45:37;6.50;99.90
15922;DHT22;8060;50.948;3.146;2023-01-16T08:48:24;6.60;99.90
15922;DHT22;8060;50.948;3.146;2023-01-16T08:51:19;6.60;99.90
15922;DHT22;8060;50.948;3.146;2023-01-16T08:53:55;6.60;99.90
15922;DHT22;8060;50.948;3.146;2023-01-16T08:56:25;6.50;99.90
15922;DHT22;8060;50.948;3.146;2023-01-16T08:58:53;6.60;99.90
15922;DHT22;8060;50.948;3.146;2023-01-16T09:01:21;6.60;99.90
15922;DHT22;8060;50.948;3.146;2023-01-16T09:03:51;6.60;99.90
15922;DHT22;8060;50.948;3.146;2023-01-16T09:06:21;6.60;99.90
15922;DHT22;8060;50.948;3.146;2023-01-16T09:08:56;6.60;99.90
15922;DHT22;8060;50.948;3.146;2023-01-16T09:11:27;6.50;99.90
15922;DHT22;8060;50.948;3.146;2023-01-16T09:14:27;6.50;99.90
15922;DHT22;8060;50.948;3.146;2023-01-16T09:16:56;6.60;99.90
15922;DHT22;8060;50.948;3.146;2023-01-16T09:19:25;6.70;99.90
15922;DHT22;8060;50.948;3.146;2023-01-16T09:21:55;6.70;99.90
15922;DHT22;8060;50.948;3.146;2023-01-16T09:24:23;6.70;99.90
15922;DHT22;8060;50.948;3.146;2023-01-16T09:26:53;6.90;99.90
15922;DHT22;8060;50.948;3.146;2023-01-16T09:29:23;6.90;99.90
15922;DHT22;8060;50.948;3.146;2023-01-16T09:31:57;7.00;99.90
15922;DHT22;8060;50.948;3.146;2023-01-16T09:34:25;7.10;99.90
15922;DHT22;8060;50.948;3.146;2023-01-16T09:36:54;7.20;99.90
15922;DHT22;8060;50.948;3.146;2023-01-16T09:39:24;7.30;99.90
15922;DHT22;8060;50.948;3.146;2023-01-16T09:42:21;7.30;99.90
15922;DHT22;8060;50.948;3.146;2023-01-16T09:45:26;7.30;99.90
15922;DHT22;8060;50.948;3.146;2023-01-16T09:47:58;7.30;99.90
15922;DHT22;8060;50.948;3.146;2023-01-16T09:50:32;7.40;99.90
15922;DHT22;8060;50.948;3.146;2023-01-16T09:53:12;7.40;99.90
15922;DHT22;8060;50.948;3.146;2023-01-16T09:55:59;7.40;99.90
15922;DHT22;8060;50.948;3.146;2023-01-16T09:58:48;7.50;99.90
15922;DHT22;8060;50.948;3.146;2023-01-16T10:01:20;7.50;99.90
15922;DHT22;8060;50.948;3.146;2023-01-16T10:03:53;7.50;99.90
15922;DHT22;8060;50.948;3.146;2023-01-16T10:06:31;7.40;99.90
15922;DHT22;8060;50.948;3.146;2023-01-16T10:09:09;7.50;99.90
15922;DHT22;8060;50.948;3.146;2023-01-16T10:11:44;7.50;99.90
15922;DHT22;8060;50.948;3.146;2023-01-16T10:14:28;7.50;99.90
15922;DHT22;8060;50.948;3.146;2023-01-16T10:17:12;7.50;99.90
15922;DHT22;8060;50.948;3.146;2023-01-16T10:19:55;7.50;99.90
15922;DHT22;8060;50.948;3.146;2023-01-16T10:22:42;7.50;99.90
15922;DHT22;8060;50.948;3.146;2023-01-16T10:25:20;7.40;99.90
15922;DHT22;8060;50.948;3.146;2023-01-16T10:27:59;7.40;99.90
15922;DHT22;8060;50.948;3.146;2023-01-16T10:30:34;7.40;99.90
15922;DHT22;8060;50.948;3.146;2023-01-16T10:33:07;7.20;99.90
15922;DHT22;8060;50.948;3.146;2023-01-16T10:35:52;7.20;99.90
15922;DHT22;8060;50.948;3.146;2023-01-16T10:38:27;7.20;99.90
15922;DHT22;8060;50.948;3.146;2023-01-16T10:41:03;7.10;99.90
15922;DHT22;8060;50.948;3.146;2023-01-16T10:43:52;7.10;99.90
15922;DHT22;8060;50.948;3.146;2023-01-16T11:19:41;6.80;99.90
15922;DHT22;8060;50.948;3.146;2023-01-16T11:22:22;6.70;99.90
15922;DHT22;8060;50.948;3.146;2023-01-16T11:24:56;6.70;99.90
15922;DHT22;8060;50.948;3.146;2023-01-16T11:27:36;6.80;99.90
15922;DHT22;8060;50.948;3.146;2023-01-16T11:30:14;6.80;99.90
15922;DHT22;8060;50.948;3.146;2023-01-16T11:32:43;6.90;99.90
15922;DHT22;8060;50.948;3.146;2023-01-16T11:35:17;6.90;99.90
15922;DHT22;8060;50.948;3.146;2023-01-16T11:37:49;6.90;99.90
15922;DHT22;8060;50.948;3.146;2023-01-16T11:40:20;6.90;99.90
15922;DHT22;8060;50.948;3.146;2023-01-16T11:42:52;6.90;99.90
15922;DHT22;8060;50.948;3.146;2023-01-16T11:45:44;6.90;99.90
15922;DHT22;8060;50.948;3.146;2023-01-16T11:48:38;6.90;99.90
15922;DHT22;8060;50.948;3.146;2023-01-16T11:51:12;6.90;99.90
15922;DHT22;8060;50.948;3.146;2023-01-16T11:53:42;6.80;99.90
15922;DHT22;8060;50.948;3.146;2023-01-16T11:56:29;6.80;99.90
15922;DHT22;8060;50.948;3.146;2023-01-16T11:59:23;6.80;99.90
15922;DHT22;8060;50.948;3.146;2023-01-16T12:02:00;6.80;99.90
15922;DHT22;8060;50.948;3.146;2023-01-16T12:04:50;6.80;99.90
15922;DHT22;8060;50.948;3.146;2023-01-16T12:07:41;6.70;99.90
15922;DHT22;8060;50.948;3.146;2023-01-16T12:10:28;6.70;99.90
15922;DHT22;8060;50.948;3.146;2023-01-16T12:13:03;6.60;99.90
15922;DHT22;8060;50.948;3.146;2023-01-16T12:16:05;6.70;99.90
15922;DHT22;8060;50.948;3.146;2023-01-16T12:18:41;6.60;99.90
15922;DHT22;8060;50.948;3.146;2023-01-16T12:21:25;6.60;99.90
15922;DHT22;8060;50.948;3.146;2023-01-16T12:24:06;6.50;99.90
15922;DHT22;8060;50.948;3.146;2023-01-16T12:26:46;6.40;99.90
15922;DHT22;8060;50.948;3.146;2023-01-16T12:29:29;6.50;99.90
15922;DHT22;8060;50.948;3.146;2023-01-16T12:35:14;6.40;99.90
15922;DHT22;8060;50.948;3.146;2023-01-16T12:37:57;6.50;99.90
15922;DHT22;8060;50.948;3.146;2023-01-16T12:40:39;6.50;99.90
15922;DHT22;8060;50.948;3.146;2023-01-16T12:43:20;6.50;99.90
15922;DHT22;8060;50.948;3.146;2023-01-16T12:45:52;6.50;99.90
15922;DHT22;8060;50.948;3.146;2023-01-16T12:48:49;6.60;99.90
15922;DHT22;8060;50.948;3.146;2023-01-16T12:51:35;6.70;99.90
15922;DHT22;8060;50.948;3.146;2023-01-16T12:54:15;6.70;99.90
15922;DHT22;8060;50.948;3.146;2023-01-16T12:57:02;6.80;99.90
15922;DHT22;8060;50.948;3.146;2023-01-16T12:59:38;6.70;99.90
15922;DHT22;8060;50.948;3.146;2023-01-16T13:02:18;6.70;99.90
15922;DHT22;8060;50.948;3.146;2023-01-16T13:41:05;7.20;99.90
15922;DHT22;8060;50.948;3.146;2023-01-16T13:43:42;7.00;99.90
15922;DHT22;8060;50.948;3.146;2023-01-16T13:46:29;6.90;99.90
15922;DHT22;8060;50.948;3.146;2023-01-16T13:49:00;6.80;99.90
15922;DHT22;8060;50.948;3.146;2023-01-16T13:51:40;6.90;99.90
15922;DHT22;8060;50.948;3.146;2023-01-16T13:54:18;6.90;99.90
15922;DHT22;8060;50.948;3.146;2023-01-16T13:56:59;6.90;99.90
15922;DHT22;8060;50.948;3.146;2023-01-16T13:59:37;6.90;99.90
15922;DHT22;8060;50.948;3.146;2023-01-16T14:02:25;6.90;99.90
15922;DHT22;8060;50.948;3.146;2023-01-16T14:09:20;6.80;99.90
15922;DHT22;8060;50.948;3.146;2023-01-16T14:11:59;6.60;99.90
15922;DHT22;8060;50.948;3.146;2023-01-16T14:14:47;6.50;99.90
15922;DHT22;8060;50.948;3.146;2023-01-16T14:20:35;6.50;99.90
15922;DHT22;8060;50.948;3.146;2023-01-16T14:32:35;6.30;99.90
15922;DHT22;8060;50.948;3.146;2023-01-16T14:48:09;6.00;99.90
15922;DHT22;8060;50.948;3.146;2023-01-16T14:50:59;6.00;99.90
15922;DHT22;8060;50.948;3.146;2023-01-16T14:53:49;6.10;99.90
15922;DHT22;8060;50.948;3.146;2023-01-16T14:56:38;6.20;99.90
15922;DHT22;8060;50.948;3.146;2023-01-16T14:59:09;6.20;99.90
15922;DHT22;8060;50.948;3.146;2023-01-16T15:09:47;6.20;99.90
